Details for Flybe at EGHI




Go Back


Latest METAR
Local Time

EGHI 241320Z 04012KT 010V080 CAVOK 05/M04 Q1020

24/02/2018, 13:38:05

Description
Results
Flybe Logo
Number of Pilots based at EGHI
1 Pilots Based here
Number of Flybe Flights Departed from EGHI
17 Flights Departed
Number of Flybe Flights Arrived at EGHI
15 Flights Arrived
Number of Flybe Schedules Departing from EGHI
103 Schedules
Number of Flybe Schedules Arriving at EGHI
103 Schedules
Number of Flybe Schedules Departing from EGHI availible today
32 Schedules Today
Number of Flybe Schedules Arriving at EGHI availible today
33 Schedules Today
Average Landing Rate at EGHI
-320 fpm
Flybe Average Landing Rate at EGHI
-281 fpm
Total Fuel Purchased at EGHI by Flybe
18,118.56 kgs / 39,944.18 lbs

Pilots Based at EGHI


Pilot ID
Pilot Name
Pilot Rank
No. of Flights
No. of Flying Hours
Sam Berry
67
110.48
Content